Aviation Digital Data Service (ADDS)

Output produced by METARs form (1929 UTC 18 June 2019)
found at http://www.aviationweather.gov/metar/data/
 
VYMD 181830Z 10007KT 6000 SCT018 FEW020CB SCT100 27/24 Q1002
TAF VYMD 181700Z 1818/1918 12008KT 6000 BKN020 BKN120 
     TEMPO 1818/1824 14008KT 6000 BKN018 FEW020CB BKN100
       
VYYY 181830Z 16004KT 7000 BKN015 FEW020CB BKN100 26/25 Q1004
TAF VYYY 181700Z 1818/1918 21008KT 6000 BKN014 FEW020CB BKN100 
     BECMG 1818/1821 20008KT 6000 DZ BKN015 FEW020CB 
     BECMG 1900/1903 18007KT 160V260 4000 RA 
     BECMG 1904/1907 21008KT 180V240 6000 -RA BKN014 FEW020CB OVC090